Time;durP1;ratioP1;P1;durP2;ratioP2;P2;SDS_P1;SDS_P2;PMS_P1;PMS_P2;Temp;Humidity;BMP_temperature;BMP_pressure;BME280_temperature;BME280_humidity;BME280_pressure;Samples;Min_cycle;Max_cycle;Signal;HPM_P1;HPM_P2
2022/04/12 00:00:57;;;;;;;;;;;18.60;59.40;;;;;;5016916;28;785;-70
2022/04/12 00:03:23;;;;;;;;;;;18.60;59.40;;;;;;5034480;28;1211;-68
2022/04/12 00:05:48;;;;;;;;;;;18.60;59.40;;;;;;5034497;28;907;-68
2022/04/12 00:08:14;;;;;;;;;;;18.60;59.40;;;;;;5016800;28;1906;-68
2022/04/12 00:10:39;;;;;;;;;;;18.60;59.40;;;;;;5034951;28;828;-68
2022/04/12 00:13:05;;;;;;;;;;;18.60;59.40;;;;;;5016660;28;1320;-68
2022/04/12 00:15:30;;;;;;;;;;;18.60;59.40;;;;;;5034149;28;918;-68
2022/04/12 00:20:41;;;;;;;;;;;18.60;59.40;;;;;;5034466;28;626;-70
2022/04/12 00:23:07;;;;;;;;;;;18.60;59.40;;;;;;5016645;28;1221;-70
2022/04/12 00:25:32;;;;;;;;;;;18.60;59.50;;;;;;5033854;28;1128;-70
2022/04/12 00:27:58;;;;;;;;;;;18.60;59.40;;;;;;5016424;28;1902;-70
2022/04/12 00:30:24;;;;;;;;;;;18.60;59.40;;;;;;5016400;28;820;-70
2022/04/12 00:32:52;;;;;;;;;;;18.60;59.30;;;;;;5016538;28;923;-70
2022/04/12 00:35:18;;;;;;;;;;;18.60;59.30;;;;;;5016707;28;1256;-70
2022/04/12 00:37:44;;;;;;;;;;;18.60;59.40;;;;;;5020004;28;1210;-70
2022/04/12 00:40:10;;;;;;;;;;;18.60;59.40;;;;;;5033878;28;892;-70
2022/04/12 00:42:36;;;;;;;;;;;18.60;59.30;;;;;;5032753;28;844;-70
2022/04/12 00:45:01;;;;;;;;;;;18.60;59.30;;;;;;5033816;28;1279;-70
2022/04/12 00:47:27;;;;;;;;;;;18.60;59.30;;;;;;5033496;28;1009;-70
2022/04/12 00:49:52;;;;;;;;;;;18.60;59.30;;;;;;5032610;28;1894;-70
2022/04/12 00:52:18;;;;;;;;;;;18.60;59.30;;;;;;5015821;28;1143;-70
2022/04/12 00:54:43;;;;;;;;;;;18.60;59.40;;;;;;5015949;28;1179;-70
2022/04/12 00:57:09;;;;;;;;;;;18.60;59.40;;;;;;5015647;28;784;-69
2022/04/12 00:59:34;;;;;;;;;;;18.60;59.30;;;;;;5015886;28;1230;-70
2022/04/12 01:02:03;;;;;;;;;;;18.60;59.40;;;;;;5032609;28;891;-70
2022/04/12 01:04:29;;;;;;;;;;;18.60;59.30;;;;;;5011358;23;3881;-69
2022/04/12 01:06:54;;;;;;;;;;;18.60;59.30;;;;;;4990513;28;1504;-68
2022/04/12 01:09:21;;;;;;;;;;;18.60;59.30;;;;;;4994173;28;1918;-68
2022/04/12 01:11:48;;;;;;;;;;;18.60;59.90;;;;;;4994141;28;831;-68
2022/04/12 01:14:14;;;;;;;;;;;18.60;59.40;;;;;;4994093;28;1339;-68
2022/04/12 01:16:40;;;;;;;;;;;18.60;59.40;;;;;;5008921;28;758;-69
2022/04/12 01:19:05;;;;;;;;;;;18.60;59.40;;;;;;5009300;28;795;-68
2022/04/12 01:21:31;;;;;;;;;;;18.60;59.40;;;;;;5008991;28;716;-68
2022/04/12 01:24:00;;;;;;;;;;;18.60;59.40;;;;;;4993966;28;1208;-68
2022/04/12 01:26:25;;;;;;;;;;;18.60;59.30;;;;;;4993632;28;823;-68
2022/04/12 01:28:51;;;;;;;;;;;18.60;59.30;;;;;;4993744;28;1955;-68
2022/04/12 01:31:16;;;;;;;;;;;18.60;59.30;;;;;;4993688;28;812;-68
2022/04/12 01:33:42;;;;;;;;;;;18.60;59.40;;;;;;4994004;28;1295;-68
2022/04/12 01:36:07;;;;;;;;;;;18.60;59.30;;;;;;4995315;28;1172;-67
2022/04/12 01:38:33;;;;;;;;;;;18.60;59.30;;;;;;5013253;28;1069;-67
2022/04/12 01:40:58;;;;;;;;;;;18.60;59.30;;;;;;5012165;28;858;-67
2022/04/12 01:43:23;;;;;;;;;;;18.60;59.30;;;;;;5013262;28;796;-67
2022/04/12 01:45:49;;;;;;;;;;;18.60;59.30;;;;;;5012984;28;671;-67
2022/04/12 01:48:14;;;;;;;;;;;18.60;59.20;;;;;;5013213;28;1898;-67
2022/04/12 01:50:40;;;;;;;;;;;18.60;59.10;;;;;;5028308;28;843;-67
2022/04/12 01:53:05;;;;;;;;;;;18.60;59.10;;;;;;5022567;28;1108;-67
2022/04/12 01:55:31;;;;;;;;;;;18.70;59.10;;;;;;5031485;28;1290;-66
2022/04/12 01:57:56;;;;;;;;;;;18.70;59.00;;;;;;5032716;28;818;-67
2022/04/12 02:00:22;;;;;;;;;;;18.70;59.00;;;;;;5032894;28;879;-66
2022/04/12 02:02:47;;;;;;;;;;;18.70;58.90;;;;;;5032698;28;933;-67
2022/04/12 02:05:13;;;;;;;;;;;18.70;58.80;;;;;;5047584;28;1239;-67
2022/04/12 02:07:38;;;;;;;;;;;18.80;58.80;;;;;;5032318;28;1895;-67
2022/04/12 02:10:04;;;;;;;;;;;18.80;58.80;;;;;;5031446;28;1250;-67
2022/04/12 02:12:29;;;;;;;;;;;18.80;58.70;;;;;;5031564;28;1025;-67
2022/04/12 02:14:55;;;;;;;;;;;18.80;58.70;;;;;;5035478;28;1183;-67
2022/04/12 02:17:20;;;;;;;;;;;18.80;58.70;;;;;;5051799;28;1308;-69
2022/04/12 02:19:46;;;;;;;;;;;18.80;58.60;;;;;;5036614;28;911;-68
2022/04/12 02:22:11;;;;;;;;;;;18.80;58.60;;;;;;5036292;28;933;-68
2022/04/12 02:24:37;;;;;;;;;;;18.80;58.60;;;;;;5035343;28;1211;-68
2022/04/12 02:27:02;;;;;;;;;;;18.90;58.60;;;;;;5036493;28;736;-69
2022/04/12 02:29:28;;;;;;;;;;;18.80;58.50;;;;;;5035274;28;1898;-68
2022/04/12 02:31:53;;;;;;;;;;;18.80;58.50;;;;;;5036436;28;852;-70
2022/04/12 02:34:18;;;;;;;;;;;18.90;58.50;;;;;;5036394;28;1275;-70
2022/04/12 02:36:44;;;;;;;;;;;18.90;58.50;;;;;;5028849;28;1182;-69
2022/04/12 02:39:09;;;;;;;;;;;18.90;58.40;;;;;;5016597;28;1219;-69
2022/04/12 02:41:36;;;;;;;;;;;18.90;58.40;;;;;;5016686;28;753;-68
2022/04/12 02:44:01;;;;;;;;;;;18.90;58.40;;;;;;5016438;28;1301;-68
2022/04/12 02:46:27;;;;;;;;;;;18.90;58.40;;;;;;5016292;28;875;-67
2022/04/12 02:48:52;;;;;;;;;;;18.90;58.40;;;;;;5016263;28;1902;-67
2022/04/12 02:51:18;;;;;;;;;;;18.90;58.40;;;;;;5016292;28;744;-67
2022/04/12 02:53:43;;;;;;;;;;;18.90;58.40;;;;;;5046078;28;1361;-67
2022/04/12 02:56:09;;;;;;;;;;;18.90;58.30;;;;;;5051299;28;951;-67
2022/04/12 02:58:34;;;;;;;;;;;18.90;58.30;;;;;;5034860;28;941;-67
2022/04/12 03:00:59;;;;;;;;;;;18.90;58.30;;;;;;5035977;28;702;-67
2022/04/12 03:03:25;;;;;;;;;;;18.90;58.30;;;;;;5051195;28;1194;-67
2022/04/12 03:05:50;;;;;;;;;;;18.90;58.30;;;;;;5034148;28;1271;-67
2022/04/12 03:08:16;;;;;;;;;;;18.90;58.30;;;;;;5035675;28;1902;-67
2022/04/12 03:10:41;;;;;;;;;;;18.90;58.30;;;;;;5034554;28;812;-67
2022/04/12 03:13:07;;;;;;;;;;;18.90;58.20;;;;;;5035680;28;917;-67
2022/04/12 03:15:32;;;;;;;;;;;18.90;58.20;;;;;;5035428;28;1185;-67
2022/04/12 03:17:58;;;;;;;;;;;18.90;58.20;;;;;;5035543;28;775;-67
2022/04/12 03:20:24;;;;;;;;;;;18.90;58.20;;;;;;5035472;28;815;-67
2022/04/12 03:22:49;;;;;;;;;;;18.90;58.20;;;;;;5034358;28;989;-68
2022/04/12 03:25:14;;;;;;;;;;;18.90;58.20;;;;;;5034541;28;1214;-68
2022/04/12 03:27:40;;;;;;;;;;;18.90;58.20;;;;;;5035079;28;1898;-67
2022/04/12 03:30:05;;;;;;;;;;;18.90;58.20;;;;;;5034196;28;861;-68
2022/04/12 03:32:31;;;;;;;;;;;18.90;58.20;;;;;;5035316;28;875;-67
2022/04/12 03:34:56;;;;;;;;;;;18.90;58.20;;;;;;5033866;28;1221;-67
2022/04/12 03:37:22;;;;;;;;;;;18.90;58.20;;;;;;5022864;28;1202;-68
2022/04/12 03:39:48;;;;;;;;;;;18.90;58.20;;;;;;5015425;28;899;-68
2022/04/12 03:42:14;;;;;;;;;;;18.90;58.30;;;;;;5014173;28;808;-67
2022/04/12 03:44:40;;;;;;;;;;;18.90;58.30;;;;;;5015599;28;1216;-67
2022/04/12 03:47:05;;;;;;;;;;;18.90;58.30;;;;;;5015171;28;804;-67
2022/04/12 03:49:31;;;;;;;;;;;18.90;58.30;;;;;;5015201;28;1914;-67
2022/04/12 03:51:56;;;;;;;;;;;18.90;58.40;;;;;;5015317;28;878;-67
2022/04/12 03:54:21;;;;;;;;;;;18.90;58.40;;;;;;5034751;28;1270;-68
2022/04/12 03:56:47;;;;;;;;;;;18.90;58.40;;;;;;5050044;28;887;-68
2022/04/12 03:59:12;;;;;;;;;;;18.90;58.40;;;;;;5034924;28;808;-67
2022/04/12 04:01:38;;;;;;;;;;;18.90;58.40;;;;;;5034734;28;788;-68
2022/04/12 04:04:03;;;;;;;;;;;18.80;58.40;;;;;;5034837;28;1206;-67
2022/04/12 04:06:29;;;;;;;;;;;18.80;58.50;;;;;;5034423;28;843;-67
2022/04/12 04:08:54;;;;;;;;;;;18.80;58.50;;;;;;5034627;28;1906;-68
2022/04/12 04:11:20;;;;;;;;;;;18.80;58.50;;;;;;5034763;28;899;-68
2022/04/12 04:13:45;;;;;;;;;;;18.80;58.50;;;;;;5033509;28;1212;-68
2022/04/12 04:16:11;;;;;;;;;;;18.80;58.60;;;;;;5030061;28;1282;-68
2022/04/12 04:18:36;;;;;;;;;;;18.80;58.60;;;;;;5029721;28;808;-67
2022/04/12 04:21:02;;;;;;;;;;;18.80;58.60;;;;;;5014557;28;875;-67
2022/04/12 04:23:27;;;;;;;;;;;18.70;58.60;;;;;;5013329;28;1333;-67
2022/04/12 04:25:53;;;;;;;;;;;18.70;58.60;;;;;;5022817;28;2188;-67
2022/04/12 04:28:21;;;;;;;;;;;18.80;58.70;;;;;;5022573;28;1898;-67
2022/04/12 04:30:49;;;;;;;;;;;18.80;58.70;;;;;;5028499;28;1068;-67
2022/04/12 04:33:14;;;;;;;;;;;18.70;58.70;;;;;;5029741;28;1147;-68
2022/04/12 04:35:40;;;;;;;;;;;18.70;58.70;;;;;;5049303;28;1278;-67
2022/04/12 04:38:05;;;;;;;;;;;18.70;58.70;;;;;;5014704;28;1221;-67
2022/04/12 04:40:31;;;;;;;;;;;18.70;58.70;;;;;;5013138;28;715;-67
2022/04/12 04:42:56;;;;;;;;;;;18.70;58.80;;;;;;5014148;28;670;-67
2022/04/12 04:45:22;;;;;;;;;;;18.70;58.80;;;;;;5012874;28;1181;-67
2022/04/12 04:47:51;;;;;;;;;;;18.70;58.80;;;;;;5012698;28;1930;-67
2022/04/12 04:50:19;;;;;;;;;;;18.70;58.80;;;;;;5014355;28;977;-67
2022/04/12 04:52:45;;;;;;;;;;;18.70;58.80;;;;;;5019480;28;1237;-68
2022/04/12 04:55:11;;;;;;;;;;;18.70;58.80;;;;;;5022369;28;1263;-68
2022/04/12 04:57:40;;;;;;;;;;;18.70;58.90;;;;;;5032338;28;1030;-68
2022/04/12 05:00:09;;;;;;;;;;;18.70;58.90;;;;;;5032408;28;1002;-68
2022/04/12 05:02:35;;;;;;;;;;;18.70;58.90;;;;;;5033493;28;860;-68
2022/04/12 05:05:03;;;;;;;;;;;18.70;58.90;;;;;;5033418;28;1306;-68
2022/04/12 05:07:29;;;;;;;;;;;18.70;58.90;;;;;;5033398;28;913;-68
2022/04/12 05:09:54;;;;;;;;;;;18.70;58.90;;;;;;5033268;28;1967;-68
2022/04/12 05:12:19;;;;;;;;;;;18.70;58.90;;;;;;5033518;28;784;-68
2022/04/12 05:14:45;;;;;;;;;;;18.60;58.90;;;;;;5033329;28;1215;-68
2022/04/12 05:17:10;;;;;;;;;;;18.70;58.90;;;;;;5048170;28;915;-67
2022/04/12 05:19:36;;;;;;;;;;;18.70;58.90;;;;;;5033359;28;937;-67
2022/04/12 05:22:01;;;;;;;;;;;18.70;58.80;;;;;;5032090;28;891;-67
2022/04/12 05:24:27;;;;;;;;;;;18.70;58.80;;;;;;5033374;28;1204;-67
2022/04/12 05:26:52;;;;;;;;;;;18.70;58.70;;;;;;5033153;28;891;-67
2022/04/12 05:29:17;;;;;;;;;;;18.80;58.70;;;;;;5033347;28;1890;-67
2022/04/12 05:31:43;;;;;;;;;;;18.80;58.70;;;;;;5032981;28;875;-67
2022/04/12 05:34:08;;;;;;;;;;;18.80;58.70;;;;;;5033151;28;1204;-68
2022/04/12 05:36:34;;;;;;;;;;;18.80;59.20;;;;;;5027460;28;1170;-67
2022/04/12 05:38:59;;;;;;;;;;;18.80;58.60;;;;;;5036542;28;1151;-69
2022/04/12 05:41:24;;;;;;;;;;;18.80;58.50;;;;;;5031392;28;1202;-71
2022/04/12 05:43:50;;;;;;;;;;;18.80;58.50;;;;;;5032800;28;1304;-70
2022/04/12 05:46:15;;;;;;;;;;;18.80;58.50;;;;;;5032652;28;800;-67
2022/04/12 05:48:41;;;;;;;;;;;18.90;58.50;;;;;;5032533;28;1898;-67
2022/04/12 05:51:06;;;;;;;;;;;18.80;58.40;;;;;;5048218;28;835;-67
2022/04/12 05:53:32;;;;;;;;;;;18.80;58.40;;;;;;5019962;28;1351;-67
2022/04/12 05:55:57;;;;;;;;;;;18.90;58.40;;;;;;5012970;28;864;-67
2022/04/12 05:58:24;;;;;;;;;;;18.90;58.90;;;;;;5003338;28;1195;-68
2022/04/12 06:00:50;;;;;;;;;;;18.90;58.40;;;;;;5002861;28;1762;-66
2022/04/12 06:03:15;;;;;;;;;;;18.90;58.40;;;;;;5004480;28;1240;-68
2022/04/12 06:05:41;;;;;;;;;;;18.90;58.30;;;;;;5012677;28;1182;-68
2022/04/12 06:08:07;;;;;;;;;;;18.90;58.30;;;;;;5012887;28;1910;-68
2022/04/12 06:10:33;;;;;;;;;;;18.90;58.30;;;;;;5013021;28;800;-68
2022/04/12 06:12:58;;;;;;;;;;;18.90;58.30;;;;;;5011646;28;903;-67
2022/04/12 06:15:24;;;;;;;;;;;18.90;58.30;;;;;;5012935;28;1210;-68
2022/04/12 06:17:49;;;;;;;;;;;18.90;58.30;;;;;;5012855;28;839;-67
2022/04/12 06:20:15;;;;;;;;;;;18.90;58.30;;;;;;5012947;28;804;-67
2022/04/12 06:22:41;;;;;;;;;;;18.90;58.20;;;;;;5011834;28;1041;-69
2022/04/12 06:25:07;;;;;;;;;;;18.90;58.20;;;;;;5009917;28;2274;-69
2022/04/12 06:27:36;;;;;;;;;;;18.90;58.20;;;;;;5006699;28;2014;-70
2022/04/12 06:30:05;;;;;;;;;;;18.90;58.20;;;;;;5011132;28;1902;-67
2022/04/12 06:32:30;;;;;;;;;;;18.90;58.20;;;;;;5011459;28;1143;-69
2022/04/12 06:34:56;;;;;;;;;;;18.90;58.20;;;;;;5012745;28;1217;-69
2022/04/12 06:37:25;;;;;;;;;;;18.90;58.20;;;;;;5012333;28;1159;-68
2022/04/12 06:39:51;;;;;;;;;;;18.90;58.20;;;;;;5013019;28;840;-68
2022/04/12 06:42:16;;;;;;;;;;;18.90;58.20;;;;;;5011603;28;890;-69
2022/04/12 06:44:41;;;;;;;;;;;18.90;58.20;;;;;;5012507;28;1198;-69
2022/04/12 06:47:07;;;;;;;;;;;18.90;58.20;;;;;;5012642;28;843;-68
2022/04/12 06:49:32;;;;;;;;;;;18.90;58.20;;;;;;5012785;28;1958;-67
2022/04/12 06:51:59;;;;;;;;;;;18.90;58.20;;;;;;5027842;28;1132;-67
2022/04/12 06:54:25;;;;;;;;;;;18.90;58.20;;;;;;5032640;28;1191;-68
2022/04/12 06:56:50;;;;;;;;;;;18.90;58.20;;;;;;5032174;28;803;-70
2022/04/12 06:59:16;;;;;;;;;;;19.00;58.10;;;;;;5032144;28;842;-70
2022/04/12 07:01:41;;;;;;;;;;;19.10;58.00;;;;;;5036034;28;852;-71
2022/04/12 07:04:07;;;;;;;;;;;19.10;57.90;;;;;;5036134;28;1205;-68
2022/04/12 07:06:32;;;;;;;;;;;19.20;57.80;;;;;;5035764;28;785;-68
2022/04/12 07:08:58;;;;;;;;;;;19.30;57.70;;;;;;5035800;28;2244;-68
2022/04/12 07:11:23;;;;;;;;;;;19.40;57.50;;;;;;5036071;28;812;-68
2022/04/12 07:13:48;;;;;;;;;;;19.50;57.40;;;;;;5035295;28;1221;-69
2022/04/12 07:16:14;;;;;;;;;;;19.60;57.20;;;;;;5034257;28;899;-69
2022/04/12 07:18:41;;;;;;;;;;;19.60;57.00;;;;;;5035641;28;895;-68
2022/04/12 07:21:07;;;;;;;;;;;19.70;56.80;;;;;;5035532;28;823;-69
2022/04/12 07:23:35;;;;;;;;;;;19.80;56.60;;;;;;5035497;28;1201;-68
2022/04/12 07:26:00;;;;;;;;;;;19.90;56.50;;;;;;5019449;28;1291;-69
2022/04/12 07:28:26;;;;;;;;;;;20.00;56.30;;;;;;5000863;28;1950;-68
2022/04/12 07:30:51;;;;;;;;;;;20.00;56.20;;;;;;4996109;28;930;-69
2022/04/12 07:33:17;;;;;;;;;;;20.10;56.00;;;;;;4996023;28;942;-69
2022/04/12 07:35:43;;;;;;;;;;;20.10;55.90;;;;;;4995780;28;1170;-68
2022/04/12 07:38:09;;;;;;;;;;;20.20;55.80;;;;;;5013856;28;1164;-69
2022/04/12 07:40:34;;;;;;;;;;;20.20;55.70;;;;;;5015545;28;887;-68
2022/04/12 07:43:00;;;;;;;;;;;20.30;55.60;;;;;;5013942;28;788;-68
2022/04/12 07:45:26;;;;;;;;;;;20.30;55.50;;;;;;5015436;28;1218;-68
2022/04/12 07:47:51;;;;;;;;;;;20.40;55.50;;;;;;5014978;28;1894;-69
2022/04/12 07:50:16;;;;;;;;;;;20.40;55.40;;;;;;5015318;28;887;-68
2022/04/12 07:52:42;;;;;;;;;;;20.40;55.30;;;;;;5021192;28;1112;-68
2022/04/12 07:55:07;;;;;;;;;;;20.50;55.30;;;;;;5035084;28;1292;-68
2022/04/12 07:57:33;;;;;;;;;;;20.50;55.30;;;;;;5034573;28;833;-69
2022/04/12 07:59:58;;;;;;;;;;;20.50;55.30;;;;;;5034997;28;792;-68
2022/04/12 08:02:24;;;;;;;;;;;20.50;55.30;;;;;;5034848;28;807;-67
2022/04/12 08:04:49;;;;;;;;;;;20.50;55.20;;;;;;5034508;28;1290;-67
2022/04/12 08:07:14;;;;;;;;;;;20.50;55.20;;;;;;5034523;28;841;-68
2022/04/12 08:09:40;;;;;;;;;;;20.50;55.20;;;;;;5034729;28;1914;-68
2022/04/12 08:12:06;;;;;;;;;;;20.50;55.10;;;;;;5033952;28;844;-68
2022/04/12 08:14:31;;;;;;;;;;;20.50;55.10;;;;;;5034657;28;1211;-68
2022/04/12 08:16:57;;;;;;;;;;;20.50;55.20;;;;;;5033101;28;800;-68
2022/04/12 08:19:22;;;;;;;;;;;20.50;55.20;;;;;;5034544;28;886;-68
2022/04/12 08:21:48;;;;;;;;;;;20.50;55.20;;;;;;5033403;28;838;-68
2022/04/12 08:24:13;;;;;;;;;;;20.40;55.30;;;;;;5049774;28;1227;-68
2022/04/12 08:26:39;;;;;;;;;;;20.40;55.30;;;;;;5016089;28;2191;-68
2022/04/12 08:29:04;;;;;;;;;;;20.40;55.30;;;;;;5008350;28;1875;-69
2022/04/12 08:31:30;;;;;;;;;;;20.40;55.40;;;;;;5013796;28;1198;-67
2022/04/12 08:33:55;;;;;;;;;;;20.30;55.50;;;;;;5012816;28;1234;-67
2022/04/12 08:36:22;;;;;;;;;;;20.30;54.90;;;;;;5013803;28;1112;-66
2022/04/12 08:38:49;;;;;;;;;;;20.20;53.90;;;;;;5014668;28;1179;-66
2022/04/12 08:41:14;;;;;;;;;;;20.20;52.50;;;;;;5002335;28;1726;-69
2022/04/12 08:43:40;;;;;;;;;;;20.10;51.50;;;;;;5010396;28;1311;-68
2022/04/12 08:46:06;;;;;;;;;;;20.00;50.10;;;;;;5013078;28;862;-67
2022/04/12 08:48:32;;;;;;;;;;;19.90;48.90;;;;;;5012230;28;1948;-70
2022/04/12 08:50:57;;;;;;;;;;;19.90;48.40;;;;;;5012194;28;862;-68
2022/04/12 08:53:23;;;;;;;;;;;19.80;47.30;;;;;;5023519;28;1183;-66
2022/04/12 08:55:48;;;;;;;;;;;19.80;46.70;;;;;;5019915;28;1941;-68
2022/04/12 08:58:14;;;;;;;;;;;19.70;44.80;;;;;;5013398;28;1339;-68
2022/04/12 09:00:39;;;;;;;;;;;19.60;44.30;;;;;;5008653;28;2086;-66
2022/04/12 09:03:05;;;;;;;;;;;19.60;43.70;;;;;;5004365;28;1098;-67
2022/04/12 09:05:43;;;;;;;;;;;19.50;43.20;;;;;;5002368;28;1260;-67
2022/04/12 09:08:30;;;;;;;;;;;19.50;42.80;;;;;;5002670;28;1902;-65
2022/04/12 09:11:03;;;;;;;;;;;19.40;42.50;;;;;;5001207;28;1260;-67
2022/04/12 09:13:28;;;;;;;;;;;19.40;41.90;;;;;;5000543;28;1381;-66
2022/04/12 09:15:54;;;;;;;;;;;19.30;42.40;;;;;;5001579;28;1544;-65
2022/04/12 09:18:31;;;;;;;;;;;19.30;42.60;;;;;;4995698;28;2313;-67
2022/04/12 09:21:08;;;;;;;;;;;19.30;42.90;;;;;;5016132;28;1168;-67
2022/04/12 09:23:33;;;;;;;;;;;19.20;43.00;;;;;;5023448;28;1390;-65
2022/04/12 09:25:59;;;;;;;;;;;19.20;43.00;;;;;;5030661;28;1169;-69
2022/04/12 09:28:24;;;;;;;;;;;19.10;42.60;;;;;;5022316;28;1953;-68
2022/04/12 09:30:53;;;;;;;;;;;19.10;43.00;;;;;;5031359;28;887;-68
2022/04/12 09:33:35;;;;;;;;;;;19.10;43.00;;;;;;5030283;28;914;-66
2022/04/12 09:36:01;;;;;;;;;;;19.10;42.70;;;;;;5011966;28;1905;-67
2022/04/12 09:38:30;;;;;;;;;;;19.00;42.60;;;;;;5012068;28;1304;-67
2022/04/12 09:41:08;;;;;;;;;;;19.00;42.30;;;;;;5010573;28;1187;-67
2022/04/12 09:43:34;;;;;;;;;;;19.00;41.90;;;;;;5011583;28;1379;-67
2022/04/12 09:46:04;;;;;;;;;;;19.00;42.40;;;;;;5012404;28;1167;-67
2022/04/12 09:48:35;;;;;;;;;;;18.90;41.50;;;;;;5012754;28;1952;-67
2022/04/12 09:51:01;;;;;;;;;;;18.90;41.80;;;;;;5013050;28;954;-67
2022/04/12 09:53:38;;;;;;;;;;;18.90;41.40;;;;;;5012990;28;1297;-69
2022/04/12 09:56:20;;;;;;;;;;;18.90;41.10;;;;;;5012731;28;1081;-69
2022/04/12 09:58:47;;;;;;;;;;;18.80;41.10;;;;;;5011919;28;805;-69
2022/04/12 10:01:13;;;;;;;;;;;18.90;41.70;;;;;;5013525;28;863;-69
2022/04/12 10:03:38;;;;;;;;;;;18.90;42.50;;;;;;5012877;28;1195;-69
2022/04/12 10:06:04;;;;;;;;;;;18.80;43.10;;;;;;5013044;28;1124;-69
2022/04/12 10:08:30;;;;;;;;;;;18.80;43.60;;;;;;5013077;28;1894;-68
2022/04/12 10:10:55;;;;;;;;;;;18.80;44.10;;;;;;5012858;28;785;-69
2022/04/12 10:13:21;;;;;;;;;;;18.80;44.60;;;;;;5013176;28;860;-69
2022/04/12 10:15:46;;;;;;;;;;;18.80;45.00;;;;;;5012761;28;1293;-69
2022/04/12 10:18:18;;;;;;;;;;;18.90;45.50;;;;;;5013167;28;903;-69
2022/04/12 10:20:43;;;;;;;;;;;18.80;45.70;;;;;;5011780;28;844;-69
2022/04/12 10:23:09;;;;;;;;;;;18.80;46.10;;;;;;5012971;28;943;-69
2022/04/12 10:25:34;;;;;;;;;;;18.80;46.50;;;;;;5011448;28;1297;-69
2022/04/12 10:28:00;;;;;;;;;;;18.90;46.80;;;;;;5002492;28;2076;-69
2022/04/12 10:30:26;;;;;;;;;;;18.80;47.20;;;;;;5011222;28;1334;-69
2022/04/12 10:32:57;;;;;;;;;;;18.80;47.30;;;;;;5011360;28;1813;-69
2022/04/12 10:35:23;;;;;;;;;;;18.80;47.70;;;;;;5017297;28;1392;-69
2022/04/12 10:37:48;;;;;;;;;;;18.80;48.00;;;;;;5028208;28;1523;-69
2022/04/12 10:40:13;;;;;;;;;;;18.80;48.20;;;;;;5026889;28;1454;-69
2022/04/12 10:42:39;;;;;;;;;;;18.80;48.40;;;;;;5027175;28;1629;-69
2022/04/12 10:45:04;;;;;;;;;;;18.80;48.60;;;;;;5020629;28;2025;-69
2022/04/12 10:47:34;;;;;;;;;;;18.80;48.90;;;;;;5014609;28;1950;-69
2022/04/12 10:50:00;;;;;;;;;;;18.80;49.00;;;;;;5020520;28;1902;-69
2022/04/12 10:52:32;;;;;;;;;;;18.80;49.20;;;;;;5026194;28;1194;-69
2022/04/12 10:54:58;;;;;;;;;;;18.80;49.30;;;;;;5024464;28;1339;-69
2022/04/12 10:57:24;;;;;;;;;;;18.80;49.90;;;;;;5015993;28;927;-69
2022/04/12 11:00:08;;;;;;;;;;;18.70;50.00;;;;;;5015216;28;812;-68
2022/04/12 11:02:38;;;;;;;;;;;18.80;50.20;;;;;;5024217;28;1110;-69
2022/04/12 11:05:04;;;;;;;;;;;18.70;50.30;;;;;;5030979;28;1347;-69
2022/04/12 11:07:30;;;;;;;;;;;18.80;50.40;;;;;;5035902;28;826;-69
2022/04/12 11:10:05;;;;;;;;;;;18.80;50.50;;;;;;5035651;28;1910;-69
2022/04/12 11:12:30;;;;;;;;;;;18.80;50.60;;;;;;5034643;28;876;-69
2022/04/12 11:15:16;;;;;;;;;;;18.70;50.70;;;;;;5034152;28;1657;-69
2022/04/12 11:17:41;;;;;;;;;;;18.70;50.70;;;;;;5025887;28;1144;-69
2022/04/12 11:20:09;;;;;;;;;;;18.70;50.80;;;;;;5030302;28;1127;-69
2022/04/12 11:22:40;;;;;;;;;;;18.70;51.00;;;;;;5034435;28;1371;-69
2022/04/12 11:25:12;;;;;;;;;;;18.70;51.10;;;;;;5035559;28;1267;-69
2022/04/12 11:27:37;;;;;;;;;;;18.70;51.20;;;;;;5035194;28;815;-69
2022/04/12 11:30:03;;;;;;;;;;;18.70;51.30;;;;;;5035017;28;1942;-69
2022/04/12 11:32:28;;;;;;;;;;;18.70;51.40;;;;;;5035334;28;1065;-69
2022/04/12 11:34:54;;;;;;;;;;;18.70;51.50;;;;;;5033833;28;1599;-69
2022/04/12 11:37:19;;;;;;;;;;;18.70;51.60;;;;;;5021815;28;1364;-69
2022/04/12 11:39:45;;;;;;;;;;;18.60;51.60;;;;;;5015378;28;879;-69
2022/04/12 11:42:11;;;;;;;;;;;18.70;52.30;;;;;;5015789;28;859;-69
2022/04/12 11:44:37;;;;;;;;;;;18.70;51.80;;;;;;5015348;28;1314;-69
2022/04/12 11:47:09;;;;;;;;;;;18.60;51.80;;;;;;5014716;28;787;-68
2022/04/12 11:49:37;;;;;;;;;;;18.60;51.90;;;;;;5015341;28;1879;-68
2022/04/12 11:52:03;;;;;;;;;;;18.60;52.00;;;;;;5016042;28;1206;-68
2022/04/12 11:54:32;;;;;;;;;;;18.60;52.10;;;;;;5034859;28;1302;-67
2022/04/12 11:57:04;;;;;;;;;;;18.60;52.20;;;;;;5033386;28;792;-68
2022/04/12 11:59:31;;;;;;;;;;;18.60;52.20;;;;;;5034925;28;764;-68
2022/04/12 12:01:59;;;;;;;;;;;18.60;52.30;;;;;;5033708;28;846;-67
2022/04/12 12:04:29;;;;;;;;;;;18.60;52.40;;;;;;5033377;28;1215;-68
2022/04/12 12:06:55;;;;;;;;;;;18.60;52.50;;;;;;5033445;28;894;-68
2022/04/12 12:09:20;;;;;;;;;;;18.60;52.60;;;;;;5035149;28;1979;-68
2022/04/12 12:11:47;;;;;;;;;;;18.60;52.70;;;;;;5034442;28;934;-68
2022/04/12 12:14:12;;;;;;;;;;;18.60;52.70;;;;;;5033341;28;1322;-68
2022/04/12 12:16:38;;;;;;;;;;;18.60;52.80;;;;;;5034396;28;839;-68
2022/04/12 12:19:04;;;;;;;;;;;18.60;52.80;;;;;;5034658;28;930;-69
2022/04/12 12:21:30;;;;;;;;;;;18.60;52.90;;;;;;5034384;28;858;-67
2022/04/12 12:23:56;;;;;;;;;;;18.60;52.90;;;;;;5028279;28;1280;-67
2022/04/12 12:26:28;;;;;;;;;;;18.50;53.00;;;;;;5014244;28;815;-68
2022/04/12 12:29:00;;;;;;;;;;;18.50;53.10;;;;;;5014650;28;1906;-69
2022/04/12 12:31:26;;;;;;;;;;;18.50;53.10;;;;;;5013461;28;852;-69
2022/04/12 12:33:52;;;;;;;;;;;18.50;53.20;;;;;;5011148;28;1401;-70
2022/04/12 12:36:19;;;;;;;;;;;18.50;53.20;;;;;;5027229;28;1607;-68
2022/04/12 12:38:45;;;;;;;;;;;18.50;53.30;;;;;;5012987;28;1112;-69
2022/04/12 12:41:10;;;;;;;;;;;18.50;53.30;;;;;;5029321;28;1366;-70
2022/04/12 12:43:35;;;;;;;;;;;18.50;53.40;;;;;;5014192;28;1208;-70
2022/04/12 12:46:07;;;;;;;;;;;18.50;53.50;;;;;;5013970;28;1006;-70
2022/04/12 12:48:33;;;;;;;;;;;18.50;53.50;;;;;;5013398;28;1902;-68
2022/04/12 12:51:02;;;;;;;;;;;18.50;53.50;;;;;;5014007;28;934;-66
2022/04/12 12:53:27;;;;;;;;;;;18.50;53.50;;;;;;5015592;28;1209;-67
2022/04/12 12:55:53;;;;;;;;;;;18.50;53.60;;;;;;5013844;28;750;-69
2022/04/12 12:58:19;;;;;;;;;;;18.50;53.70;;;;;;5013090;28;1025;-71
2022/04/12 13:00:44;;;;;;;;;;;18.50;53.70;;;;;;5013020;28;990;-71
2022/04/12 13:03:13;;;;;;;;;;;18.50;53.80;;;;;;5014165;28;831;-71
2022/04/12 13:05:39;;;;;;;;;;;18.50;53.80;;;;;;5026021;23;2029;-67
2022/04/12 13:08:05;;;;;;;;;;;18.50;53.90;;;;;;5012486;28;1966;-67
2022/04/12 13:10:34;;;;;;;;;;;18.50;53.90;;;;;;5014192;28;1227;-66
2022/04/12 13:12:59;;;;;;;;;;;18.50;54.00;;;;;;4996651;28;1306;-71
2022/04/12 13:15:25;;;;;;;;;;;18.50;54.00;;;;;;5014111;28;1521;-71
2022/04/12 13:17:50;;;;;;;;;;;18.50;54.70;;;;;;5020514;28;1110;-70
2022/04/12 13:20:16;;;;;;;;;;;18.40;54.00;;;;;;5028671;28;823;-69
2022/04/12 13:22:41;;;;;;;;;;;18.50;54.80;;;;;;5028867;28;943;-70
2022/04/12 13:25:07;;;;;;;;;;;18.40;54.20;;;;;;5028818;28;1229;-73
2022/04/12 13:27:34;;;;;;;;;;;18.50;54.20;;;;;;5013385;28;1033;-68
2022/04/12 13:30:00;;;;;;;;;;;18.40;54.30;;;;;;5028464;28;1910;-70
2022/04/12 13:32:25;;;;;;;;;;;18.40;54.30;;;;;;5013318;28;859;-70
2022/04/12 13:34:50;;;;;;;;;;;18.40;54.30;;;;;;5006791;28;2012;-69
2022/04/12 13:37:16;;;;;;;;;;;18.40;54.40;;;;;;5011196;28;1092;-72
2022/04/12 13:39:41;;;;;;;;;;;18.40;54.40;;;;;;5013270;28;871;-72
2022/04/12 13:42:07;;;;;;;;;;;18.40;54.40;;;;;;5028482;28;776;-70
2022/04/12 13:44:32;;;;;;;;;;;18.40;54.50;;;;;;5028268;28;1327;-71
2022/04/12 13:46:59;;;;;;;;;;;18.40;54.60;;;;;;5028742;28;1374;-71
2022/04/12 13:49:24;;;;;;;;;;;18.40;54.60;;;;;;5028186;28;1906;-71
2022/04/12 13:51:50;;;;;;;;;;;18.40;54.60;;;;;;5028505;28;859;-68
2022/04/12 13:54:15;;;;;;;;;;;18.40;54.70;;;;;;5012924;28;1250;-67
2022/04/12 13:56:41;;;;;;;;;;;18.40;54.70;;;;;;4995228;28;947;-66
2022/04/12 13:59:06;;;;;;;;;;;18.40;54.80;;;;;;5013285;28;923;-67
2022/04/12 14:01:31;;;;;;;;;;;18.40;54.80;;;;;;5011924;28;892;-69
2022/04/12 14:03:57;;;;;;;;;;;18.40;54.80;;;;;;5013114;28;1220;-69
2022/04/12 14:06:25;;;;;;;;;;;18.40;54.90;;;;;;4994877;28;1189;-69
2022/04/12 14:08:51;;;;;;;;;;;18.30;54.80;;;;;;4996344;28;1914;-69
2022/04/12 14:11:16;;;;;;;;;;;18.30;54.90;;;;;;5015808;28;784;-69
2022/04/12 14:13:43;;;;;;;;;;;18.30;54.90;;;;;;5016003;28;843;-69
2022/04/12 14:16:11;;;;;;;;;;;18.30;54.90;;;;;;5016673;28;1276;-69
2022/04/12 14:18:37;;;;;;;;;;;18.40;55.00;;;;;;5015812;28;1014;-69
2022/04/12 14:21:03;;;;;;;;;;;18.30;55.00;;;;;;5016697;28;790;-70
2022/04/12 14:23:28;;;;;;;;;;;18.30;55.00;;;;;;5016928;28;796;-69
2022/04/12 14:25:53;;;;;;;;;;;18.30;55.10;;;;;;5016366;28;1204;-69
2022/04/12 14:28:19;;;;;;;;;;;18.30;55.10;;;;;;5016750;28;1894;-69
2022/04/12 14:30:44;;;;;;;;;;;18.30;55.20;;;;;;5016776;28;926;-69
2022/04/12 14:33:10;;;;;;;;;;;18.30;55.20;;;;;;5015391;28;931;-70